Time;durP1;ratioP1;P1;durP2;ratioP2;P2;SDS_P1;SDS_P2;PMS_P1;PMS_P2;Temp;Humidity;BMP_temperature;BMP_pressure;BME280_temperature;BME280_humidity;BME280_pressure;Samples;Min_cycle;Max_cycle;Signal;HPM_P1;HPM_P2
2021/12/04 00:02:22;;;;;;;5.27;3.37;;;4.70;99.90;;;;;;5058806;28;20494;-65
2021/12/04 00:04:52;;;;;;;6.63;3.97;;;4.60;99.90;;;;;;5059396;28;20479;-65
2021/12/04 00:07:21;;;;;;;5.93;3.33;;;4.60;99.90;;;;;;5060816;28;20435;-65
2021/12/04 00:09:50;;;;;;;4.47;3.73;;;4.70;99.90;;;;;;5065841;28;20466;-66
2021/12/04 00:12:17;;;;;;;5.23;3.60;;;4.70;99.90;;;;;;5062354;28;20541;-66
2021/12/04 00:14:45;;;;;;;4.43;3.30;;;4.70;99.90;;;;;;5066535;28;21168;-66
2021/12/04 00:17:12;;;;;;;3.70;3.27;;;4.70;99.90;;;;;;5065687;28;20446;-65
2021/12/04 00:19:39;;;;;;;5.00;3.70;;;4.70;99.90;;;;;;5066508;28;20471;-65
2021/12/04 00:22:08;;;;;;;5.10;3.40;;;4.70;99.90;;;;;;5066049;28;20538;-65
2021/12/04 00:24:35;;;;;;;6.13;4.27;;;4.70;99.90;;;;;;5064650;28;20484;-66
2021/12/04 00:27:02;;;;;;;4.10;3.60;;;4.70;99.90;;;;;;5065356;28;20493;-65
2021/12/04 00:29:29;;;;;;;5.20;3.30;;;4.60;99.90;;;;;;5066397;28;20474;-65
2021/12/04 00:31:58;;;;;;;6.37;3.70;;;4.70;99.90;;;;;;5066147;28;20457;-66
2021/12/04 00:34:26;;;;;;;3.73;3.20;;;4.60;99.90;;;;;;5066466;28;21162;-65
2021/12/04 00:37:11;;;;;;;5.87;3.97;;;4.70;99.90;;;;;;5063419;28;20456;-65
2021/12/04 00:50:38;;;;;;;6.20;3.50;;;4.60;99.90;;;;;;5069250;28;20948;-66
2021/12/04 00:53:05;;;;;;;5.03;3.80;;;4.70;99.90;;;;;;5068426;28;20972;-66
2021/12/04 00:55:33;;;;;;;5.40;3.83;;;4.70;99.90;;;;;;5051927;28;20443;-66
2021/12/04 00:58:00;;;;;;;5.17;3.90;;;4.70;99.90;;;;;;5058901;28;20458;-64
2021/12/04 01:00:27;;;;;;;5.20;4.50;;;4.70;99.90;;;;;;5068546;28;20995;-65
2021/12/04 01:02:54;;;;;;;5.10;4.30;;;4.70;99.90;;;;;;5068306;28;20447;-65
2021/12/04 01:05:20;;;;;;;5.10;3.70;;;4.70;99.90;;;;;;5051342;28;20488;-66
2021/12/04 01:07:47;;;;;;;5.70;3.63;;;4.70;99.90;;;;;;5051952;28;20828;-66
2021/12/04 01:10:14;;;;;;;6.80;4.20;;;4.70;99.90;;;;;;5053210;28;20559;-66
2021/12/04 01:12:43;;;;;;;5.47;3.80;;;4.60;99.90;;;;;;5052529;28;20458;-65
2021/12/04 01:15:11;;;;;;;5.53;4.07;;;4.50;99.90;;;;;;5050207;28;20550;-66
2021/12/04 01:17:38;;;;;;;4.53;3.80;;;4.40;99.90;;;;;;5050328;28;20530;-66
2021/12/04 01:20:05;;;;;;;5.63;4.57;;;4.30;99.90;;;;;;5048880;28;20474;-65
2021/12/04 01:22:33;;;;;;;7.90;4.00;;;4.20;99.90;;;;;;5050254;28;20839;-65
2021/12/04 01:25:00;;;;;;;6.60;5.00;;;4.10;99.90;;;;;;5049924;28;20938;-65
2021/12/04 01:27:27;;;;;;;4.97;3.97;;;4.10;99.90;;;;;;5050122;28;20448;-65
2021/12/04 01:29:55;;;;;;;7.47;4.60;;;4.00;99.90;;;;;;5050297;28;20542;-66
2021/12/04 01:32:22;;;;;;;4.90;3.90;;;4.00;99.90;;;;;;5050186;28;20818;-65
2021/12/04 01:34:49;;;;;;;5.70;4.43;;;4.00;99.90;;;;;;5050038;28;20449;-65
2021/12/04 01:37:16;;;;;;;5.10;3.83;;;3.90;99.90;;;;;;5049334;28;20474;-65
2021/12/04 01:39:43;;;;;;;6.83;4.30;;;3.90;99.90;;;;;;5049839;28;21011;-65
2021/12/04 01:42:10;;;;;;;5.07;3.93;;;3.90;99.90;;;;;;5049694;28;21214;-65
2021/12/04 01:44:37;;;;;;;6.27;3.80;;;3.90;99.90;;;;;;5050006;28;20453;-65
2021/12/04 01:47:13;;;;;;;5.23;4.27;;;3.80;99.90;;;;;;5049237;28;20967;-64
2021/12/04 01:49:40;;;;;;;5.70;4.33;;;3.70;99.90;;;;;;5050062;28;20481;-65
2021/12/04 01:52:08;;;;;;;7.50;4.80;;;3.70;99.90;;;;;;5049509;28;20448;-66
2021/12/04 01:54:35;;;;;;;5.30;4.17;;;3.60;99.90;;;;;;5049930;28;21278;-66
2021/12/04 01:57:03;;;;;;;6.17;4.47;;;3.60;99.90;;;;;;5048950;28;21151;-65
2021/12/04 01:59:30;;;;;;;8.87;4.53;;;3.60;99.90;;;;;;5049873;28;20471;-66
2021/12/04 02:01:58;;;;;;;7.10;4.97;;;3.50;99.90;;;;;;5049937;28;20447;-66
2021/12/04 02:04:26;;;;;;;5.23;4.20;;;3.40;99.90;;;;;;5049905;28;20450;-65
2021/12/04 02:06:53;;;;;;;6.20;4.20;;;3.40;99.90;;;;;;5049171;28;20439;-66
2021/12/04 02:09:20;;;;;;;6.43;4.47;;;3.30;99.90;;;;;;5049938;28;21047;-66
2021/12/04 02:11:46;;;;;;;6.43;4.43;;;3.40;99.90;;;;;;5049674;28;20448;-65
2021/12/04 02:14:14;;;;;;;7.37;4.73;;;3.30;99.90;;;;;;5049052;28;20538;-65
2021/12/04 02:16:40;;;;;;;7.73;5.30;;;3.30;99.90;;;;;;5048768;28;20443;-65
2021/12/04 02:19:07;;;;;;;4.73;4.10;;;3.30;99.90;;;;;;5048551;28;20815;-66
2021/12/04 02:21:36;;;;;;;8.97;4.90;;;3.30;99.90;;;;;;5049238;28;20442;-65
2021/12/04 02:24:02;;;;;;;5.60;4.53;;;3.40;99.90;;;;;;5048559;28;20459;-65
2021/12/04 02:26:30;;;;;;;7.20;5.03;;;3.40;99.90;;;;;;5048487;28;21027;-66
2021/12/04 02:28:57;;;;;;;5.23;4.33;;;3.40;99.90;;;;;;5048740;28;20474;-65
2021/12/04 02:31:24;;;;;;;6.73;4.50;;;3.40;99.90;;;;;;5048741;28;20448;-65
2021/12/04 02:33:51;;;;;;;5.40;4.07;;;3.50;99.90;;;;;;5048777;28;20443;-65
2021/12/04 02:36:18;;;;;;;6.23;4.70;;;3.50;99.90;;;;;;5048650;28;20445;-65
2021/12/04 02:38:50;;;;;;;4.37;3.50;;;3.60;99.90;;;;;;5048382;28;20549;-65
2021/12/04 02:41:18;;;;;;;6.90;4.47;;;3.60;99.90;;;;;;5048716;28;21101;-64
2021/12/04 02:43:46;;;;;;;5.97;4.37;;;3.50;99.90;;;;;;5048623;28;20455;-65
2021/12/04 02:46:13;;;;;;;4.87;4.10;;;3.50;99.90;;;;;;5048167;28;20545;-65
2021/12/04 02:48:41;;;;;;;6.23;5.10;;;3.50;99.90;;;;;;5048268;28;20490;-66
2021/12/04 02:51:08;;;;;;;8.23;5.80;;;3.50;99.90;;;;;;5048359;28;20497;-66
2021/12/04 02:53:35;;;;;;;8.83;6.00;;;3.40;99.90;;;;;;5048509;28;20446;-65
2021/12/04 02:56:05;;;;;;;7.27;5.70;;;3.40;99.90;;;;;;5048401;28;20813;-66
2021/12/04 02:58:33;;;;;;;7.50;6.13;;;3.40;99.90;;;;;;5047917;28;20456;-66
2021/12/04 03:01:00;;;;;;;8.23;5.77;;;3.30;99.90;;;;;;5048642;28;20514;-66
2021/12/04 03:03:27;;;;;;;9.70;6.40;;;3.30;99.90;;;;;;5049074;28;20446;-65
2021/12/04 03:05:54;;;;;;;8.77;6.53;;;3.30;99.90;;;;;;5048487;28;21022;-67
2021/12/04 03:08:23;;;;;;;10.63;7.20;;;3.30;99.90;;;;;;5048413;28;20446;-66
2021/12/04 03:10:50;;;;;;;9.67;7.50;;;3.30;99.90;;;;;;5048109;28;20449;-66
2021/12/04 03:13:20;;;;;;;11.27;7.10;;;3.30;99.90;;;;;;5048389;28;20529;-66
2021/12/04 03:15:56;;;;;;;11.30;7.30;;;3.30;99.90;;;;;;5049898;28;20534;-66
2021/12/04 03:18:23;;;;;;;10.30;7.27;;;3.30;99.90;;;;;;5066276;28;20495;-66
2021/12/04 03:20:52;;;;;;;8.17;6.43;;;3.30;99.90;;;;;;5067641;28;20450;-66
2021/12/04 03:23:26;;;;;;;13.20;7.70;;;3.30;99.90;;;;;;5067788;28;21087;-66
2021/12/04 03:25:55;;;;;;;10.53;7.33;;;3.30;99.90;;;;;;5067593;28;20462;-67
2021/12/04 03:28:23;;;;;;;9.30;7.57;;;3.30;99.90;;;;;;5067623;28;20448;-66
2021/12/04 03:30:52;;;;;;;9.93;7.80;;;3.30;99.90;;;;;;5067875;28;20502;-66
2021/12/04 03:41:31;;;;;;;9.53;7.57;;;3.30;99.90;;;;;;5067709;28;20547;-66
2021/12/04 03:43:59;;;;;;;11.47;8.60;;;3.30;99.90;;;;;;5067927;28;20875;-67
2021/12/04 03:46:26;;;;;;;11.13;7.93;;;3.30;99.90;;;;;;5066996;28;20495;-67
2021/12/04 03:48:53;;;;;;;9.93;8.73;;;3.30;99.90;;;;;;5067518;28;20517;-67
2021/12/04 03:51:21;;;;;;;9.97;7.53;;;3.30;99.90;;;;;;5067561;28;20498;-67
2021/12/04 03:53:49;;;;;;;11.27;8.07;;;3.30;99.90;;;;;;5067979;28;20518;-67
2021/12/04 03:56:20;;;;;;;12.63;8.83;;;3.30;99.90;;;;;;5067251;28;20829;-67
2021/12/04 03:58:47;;;;;;;10.43;8.20;;;3.30;99.90;;;;;;5067228;28;20606;-66
2021/12/04 04:01:15;;;;;;;10.40;7.27;;;3.30;99.90;;;;;;5067368;28;20438;-67
2021/12/04 04:03:42;;;;;;;10.70;7.37;;;3.40;99.90;;;;;;5067396;28;20867;-67
2021/12/04 04:06:09;;;;;;;11.50;7.93;;;3.40;99.90;;;;;;5067405;28;20478;-67
2021/12/04 04:08:36;;;;;;;10.10;7.27;;;3.40;99.90;;;;;;5067085;28;20450;-67
2021/12/04 04:11:03;;;;;;;9.80;8.17;;;3.50;99.90;;;;;;5067415;28;20455;-67
2021/12/04 04:13:29;;;;;;;8.93;7.47;;;3.40;99.90;;;;;;5066919;28;20959;-66
2021/12/04 04:15:58;;;;;;;11.50;7.67;;;3.50;99.90;;;;;;5067085;28;20441;-65
2021/12/04 04:18:27;;;;;;;11.03;7.90;;;3.50;99.90;;;;;;5066539;28;20540;-65
2021/12/04 04:20:54;;;;;;;9.87;7.27;;;3.60;99.90;;;;;;5067498;28;20797;-64
2021/12/04 04:23:20;;;;;;;8.87;6.97;;;3.60;99.90;;;;;;5067088;28;20455;-66
2021/12/04 04:25:47;;;;;;;7.93;6.13;;;3.60;99.90;;;;;;5067165;28;20489;-64
2021/12/04 04:28:14;;;;;;;8.87;6.80;;;3.60;99.90;;;;;;5066526;28;21128;-63
2021/12/04 04:30:41;;;;;;;10.23;6.83;;;3.70;99.90;;;;;;5068850;28;20473;-65
2021/12/04 04:33:11;;;;;;;8.90;5.97;;;3.70;99.90;;;;;;5070944;28;20505;-65
2021/12/04 04:35:39;;;;;;;8.37;5.70;;;3.70;99.90;;;;;;5070811;28;20467;-64
2021/12/04 04:38:18;;;;;;;9.20;6.20;;;3.80;99.90;;;;;;5070297;28;20966;-64
2021/12/04 05:00:21;;;;;;;8.83;6.27;;;3.90;99.90;;;;;;5070088;28;20448;-64
2021/12/04 05:11:08;;;;;;;9.60;6.20;;;3.80;99.90;;;;;;5070117;28;20422;-65
2021/12/04 05:13:35;;;;;;;9.40;6.53;;;3.80;99.90;;;;;;5070371;28;20542;-64
2021/12/04 05:16:11;;;;;;;9.20;6.90;;;3.80;99.90;;;;;;5069777;28;20435;-66
2021/12/04 05:18:41;;;;;;;10.33;7.30;;;3.80;99.90;;;;;;5070063;28;20479;-65
2021/12/04 05:21:11;;;;;;;8.10;6.43;;;3.80;99.90;;;;;;5069920;28;20450;-65
2021/12/04 05:23:42;;;;;;;8.30;6.50;;;3.90;99.90;;;;;;5069695;28;20455;-64
2021/12/04 05:26:11;;;;;;;9.17;6.97;;;3.90;99.90;;;;;;5069566;28;20850;-64
2021/12/04 05:28:38;;;;;;;7.70;6.23;;;3.90;99.90;;;;;;5069476;28;20475;-65
2021/12/04 05:31:05;;;;;;;8.70;6.83;;;3.90;99.90;;;;;;5069827;28;20454;-64
2021/12/04 05:33:32;;;;;;;9.83;7.40;;;3.90;99.90;;;;;;5069990;28;20443;-65
2021/12/04 05:35:59;;;;;;;8.90;6.30;;;3.80;99.90;;;;;;5069711;28;20442;-65
2021/12/04 05:38:26;;;;;;;10.20;6.87;;;3.80;99.90;;;;;;5069602;28;20824;-65
2021/12/04 05:40:54;;;;;;;6.70;5.50;;;3.80;99.90;;;;;;5069837;28;20453;-66
2021/12/04 05:43:24;;;;;;;8.83;6.87;;;3.90;99.90;;;;;;5069771;28;21044;-66
2021/12/04 05:45:57;;;;;;;6.57;5.67;;;3.80;99.90;;;;;;5069693;28;20485;-66
2021/12/04 05:48:30;;;;;;;8.10;6.50;;;3.90;99.90;;;;;;5069362;28;20447;-65
2021/12/04 05:53:58;;;;;;;9.20;6.40;;;3.90;99.90;;;;;;5069629;28;20434;-66
2021/12/04 05:56:26;;;;;;;8.60;6.60;;;3.90;99.90;;;;;;5069429;28;20896;-66
2021/12/04 05:58:53;;;;;;;7.70;6.07;;;3.90;99.90;;;;;;5068936;28;20480;-66
2021/12/04 06:01:22;;;;;;;8.13;6.50;;;3.90;99.90;;;;;;5069110;28;20498;-66
2021/12/04 06:03:49;;;;;;;6.83;5.60;;;3.90;99.90;;;;;;5068768;28;20810;-66
2021/12/04 06:06:17;;;;;;;7.47;5.87;;;3.90;99.90;;;;;;5068488;28;21042;-66
2021/12/04 06:08:44;;;;;;;7.60;5.50;;;3.90;99.90;;;;;;5068695;28;20456;-66
2021/12/04 06:11:11;;;;;;;6.73;5.43;;;3.90;99.90;;;;;;5068906;28;20439;-66
2021/12/04 06:13:39;;;;;;;9.10;6.80;;;4.00;99.90;;;;;;5068656;28;20438;-66
2021/12/04 06:16:06;;;;;;;11.30;6.20;;;3.90;99.90;;;;;;5068940;28;20526;-66
2021/12/04 06:18:34;;;;;;;6.80;5.33;;;3.90;99.90;;;;;;5068009;28;21171;-66
2021/12/04 06:23:45;;;;;;;8.57;6.40;;;4.00;99.90;;;;;;5068308;28;20496;-67
2021/12/04 06:26:13;;;;;;;8.27;6.43;;;4.00;99.90;;;;;;5068442;28;20476;-66
2021/12/04 06:28:41;;;;;;;7.57;5.80;;;4.00;99.90;;;;;;5068137;28;20521;-67
2021/12/04 06:31:09;;;;;;;8.17;5.90;;;4.00;99.90;;;;;;5068317;28;20439;-66
2021/12/04 06:33:37;;;;;;;8.63;6.53;;;4.00;99.90;;;;;;5068335;28;20444;-66
2021/12/04 06:36:05;;;;;;;7.20;5.60;;;4.00;99.90;;;;;;5068533;28;20497;-67
2021/12/04 06:38:32;;;;;;;7.37;6.57;;;4.00;99.90;;;;;;5067641;28;20945;-66
2021/12/04 06:40:59;;;;;;;7.17;5.57;;;4.00;99.90;;;;;;5068158;28;20431;-66
2021/12/04 06:43:26;;;;;;;9.77;6.13;;;4.00;99.90;;;;;;5068264;28;20439;-66
2021/12/04 06:45:59;;;;;;;8.33;5.80;;;4.00;99.90;;;;;;5068094;28;20449;-66
2021/12/04 06:48:31;;;;;;;6.90;5.40;;;4.00;99.90;;;;;;5068243;28;20447;-66
2021/12/04 06:51:01;;;;;;;8.70;6.07;;;4.00;99.90;;;;;;5068241;28;20440;-65
2021/12/04 06:53:31;;;;;;;8.10;6.23;;;4.00;99.90;;;;;;5067825;28;20475;-66
2021/12/04 06:56:00;;;;;;;7.53;5.87;;;4.00;99.90;;;;;;5068125;28;20439;-66
2021/12/04 06:58:28;;;;;;;6.97;6.03;;;4.00;99.90;;;;;;5068123;28;20479;-66
2021/12/04 07:00:57;;;;;;;8.27;6.40;;;4.00;99.90;;;;;;5067996;28;21295;-66
2021/12/04 07:03:24;;;;;;;9.40;7.37;;;4.10;99.90;;;;;;5067915;28;20469;-66
2021/12/04 07:05:51;;;;;;;8.50;6.40;;;4.00;99.90;;;;;;5067639;28;20459;-66
2021/12/04 07:08:18;;;;;;;9.57;7.13;;;4.00;99.90;;;;;;5067612;28;20437;-66
2021/12/04 07:10:45;;;;;;;7.37;6.17;;;3.90;99.90;;;;;;5067709;28;20447;-66
2021/12/04 07:13:12;;;;;;;10.97;7.60;;;3.90;99.90;;;;;;5067943;28;21027;-66
2021/12/04 07:15:41;;;;;;;10.20;7.50;;;3.90;99.90;;;;;;5067633;28;20443;-66
2021/12/04 07:18:09;;;;;;;8.07;5.90;;;3.90;99.90;;;;;;5067751;28;20514;-66
2021/12/04 07:20:37;;;;;;;9.73;7.60;;;4.00;99.90;;;;;;5068019;28;20465;-66
2021/12/04 07:23:04;;;;;;;8.17;6.70;;;4.10;99.90;;;;;;5067665;28;20444;-66
2021/12/04 07:25:31;;;;;;;10.30;8.70;;;4.10;99.90;;;;;;5067677;28;21057;-66
2021/12/04 07:27:58;;;;;;;11.43;7.60;;;4.20;99.90;;;;;;5067674;28;20488;-66
2021/12/04 07:30:25;;;;;;;10.80;7.73;;;4.20;99.90;;;;;;5067704;28;20813;-67
2021/12/04 07:32:52;;;;;;;13.13;8.30;;;4.20;99.90;;;;;;5067645;28;20454;-66
2021/12/04 07:35:21;;;;;;;10.57;7.00;;;4.20;99.90;;;;;;5067583;28;21096;-66
2021/12/04 07:37:48;;;;;;;8.80;7.40;;;4.20;99.90;;;;;;5067074;28;20442;-65
2021/12/04 07:40:15;;;;;;;10.37;7.57;;;4.20;99.90;;;;;;5067475;28;21041;-65
2021/12/04 07:42:42;;;;;;;8.10;6.33;;;4.30;99.90;;;;;;5067506;28;20443;-66
2021/12/04 07:45:09;;;;;;;9.07;6.57;;;4.30;99.90;;;;;;5067875;28;20886;-65
2021/12/04 07:47:36;;;;;;;8.10;6.00;;;4.40;99.90;;;;;;5066989;28;20511;-65
2021/12/04 07:50:06;;;;;;;8.00;6.23;;;4.40;99.90;;;;;;5065307;28;20476;-68
2021/12/04 07:52:34;;;;;;;10.27;6.90;;;4.40;99.90;;;;;;5066814;28;21098;-66
2021/12/04 07:55:01;;;;;;;7.40;5.80;;;4.50;99.90;;;;;;5063553;28;20456;-66
2021/12/04 07:57:28;;;;;;;7.43;6.10;;;4.50;99.90;;;;;;5066734;28;20442;-66
2021/12/04 07:59:55;;;;;;;8.77;5.60;;;4.50;99.90;;;;;;5067142;28;21089;-66
2021/12/04 08:02:22;;;;;;;8.10;6.40;;;4.50;99.90;;;;;;5063898;28;20436;-65
2021/12/04 08:04:49;;;;;;;7.83;6.13;;;4.50;99.90;;;;;;5067276;28;20447;-68
2021/12/04 08:07:16;;;;;;;6.77;5.83;;;4.50;99.90;;;;;;5070669;28;20588;-67
2021/12/04 08:09:44;;;;;;;8.00;6.40;;;4.60;99.90;;;;;;5071158;28;20561;-69
2021/12/04 08:12:11;;;;;;;7.13;5.30;;;4.70;99.90;;;;;;5071099;28;20819;-66
2021/12/04 08:14:39;;;;;;;8.47;7.57;;;4.70;99.90;;;;;;5071046;28;20459;-66
2021/12/04 08:17:06;;;;;;;9.43;7.63;;;4.80;99.90;;;;;;5070609;28;20443;-67
2021/12/04 08:19:33;;;;;;;9.20;7.93;;;5.00;99.90;;;;;;5070460;28;20852;-68
2021/12/04 08:22:00;;;;;;;13.07;10.30;;;5.10;99.90;;;;;;5070564;28;20451;-67
2021/12/04 08:24:27;;;;;;;11.73;10.30;;;5.10;99.90;;;;;;5070777;28;20581;-68
2021/12/04 08:26:55;;;;;;;9.90;8.30;;;5.20;99.90;;;;;;5070179;28;20474;-67
2021/12/04 08:29:22;;;;;;;8.50;7.17;;;5.30;99.90;;;;;;5064312;28;21174;-67
2021/12/04 08:31:51;;;;;;;8.00;6.30;;;5.40;99.90;;;;;;5050611;28;20449;-65
2021/12/04 08:34:19;;;;;;;9.63;5.97;;;5.40;99.90;;;;;;5050562;28;20452;-65
2021/12/04 08:36:46;;;;;;;7.87;6.23;;;5.50;99.90;;;;;;5050554;28;20448;-66
2021/12/04 08:39:13;;;;;;;7.73;5.67;;;5.40;99.90;;;;;;5050641;28;20468;-66
2021/12/04 08:41:41;;;;;;;7.20;5.70;;;5.50;99.90;;;;;;5050676;28;20479;-66
2021/12/04 08:44:09;;;;;;;8.27;5.57;;;5.40;99.90;;;;;;5050347;28;20466;-66
2021/12/04 08:46:37;;;;;;;7.77;5.50;;;5.50;99.90;;;;;;5050112;28;20455;-66
2021/12/04 08:49:05;;;;;;;7.50;5.40;;;5.60;99.90;;;;;;5050091;28;20464;-66
2021/12/04 08:51:33;;;;;;;8.00;5.83;;;5.70;99.90;;;;;;5050411;28;20441;-66
2021/12/04 08:54:00;;;;;;;6.53;5.60;;;5.70;99.90;;;;;;5057036;28;20460;-66
2021/12/04 08:56:27;;;;;;;6.03;5.10;;;5.70;99.90;;;;;;5069527;28;20448;-65
2021/12/04 08:58:54;;;;;;;7.50;6.00;;;5.80;99.90;;;;;;5069982;28;20471;-67
2021/12/04 09:01:26;;;;;;;10.63;5.93;;;6.00;99.90;;;;;;5070077;28;20447;-66
2021/12/04 09:03:56;;;;;;;8.40;5.90;;;6.10;99.90;;;;;;5070160;28;20472;-66
2021/12/04 09:06:23;;;;;;;7.23;5.70;;;6.20;99.90;;;;;;5069440;28;20450;-67
2021/12/04 09:08:51;;;;;;;6.83;5.80;;;6.20;99.90;;;;;;5070398;28;20483;-66
2021/12/04 09:11:23;;;;;;;5.80;5.10;;;6.30;99.90;;;;;;5070467;28;20450;-66
2021/12/04 09:13:52;;;;;;;7.37;4.70;;;6.40;99.90;;;;;;5069792;28;20446;-66
2021/12/04 09:16:20;;;;;;;6.43;5.03;;;6.40;99.90;;;;;;5065672;28;20439;-66
2021/12/04 09:18:48;;;;;;;5.87;4.40;;;6.50;99.90;;;;;;5069452;28;20451;-66
2021/12/04 09:21:16;;;;;;;7.33;4.93;;;6.60;99.90;;;;;;5069503;28;20451;-66
2021/12/04 09:23:48;;;;;;;6.73;4.73;;;6.70;99.90;;;;;;5069586;28;20447;-68
2021/12/04 09:26:27;;;;;;;5.40;4.70;;;6.80;99.90;;;;;;5053060;28;20890;-67
2021/12/04 09:29:02;;;;;;;6.30;4.40;;;6.90;99.90;;;;;;5069380;28;20545;-66
2021/12/04 09:31:44;;;;;;;5.57;4.90;;;7.10;99.90;;;;;;5069714;28;20475;-68
2021/12/04 09:34:27;;;;;;;5.20;3.33;;;7.20;99.90;;;;;;5068360;28;20444;-67
2021/12/04 10:02:05;;;;;;;5.57;3.33;;;7.80;99.90;;;;;;5028882;28;20417;-66
2021/12/04 10:13:26;;;;;;;2.83;2.20;;;8.00;99.90;;;;;;5062077;28;20438;-66
2021/12/04 10:21:39;;;;;;;3.80;2.30;;;8.30;99.90;;;;;;5067601;28;20431;-66
2021/12/04 10:32:36;;;;;;;7.33;3.17;;;8.50;99.90;;;;;;5063957;28;20509;-67
2021/12/04 10:35:08;;;;;;;4.80;2.90;;;8.60;99.90;;;;;;5066593;28;20436;-67
2021/12/04 10:37:44;;;;;;;3.57;2.20;;;8.70;99.90;;;;;;5067043;28;20513;-67
2021/12/04 10:40:13;;;;;;;4.73;3.10;;;8.70;99.90;;;;;;5066634;28;20463;-67
2021/12/04 10:42:43;;;;;;;4.20;2.77;;;8.90;99.90;;;;;;5066942;28;20443;-67
2021/12/04 10:45:11;;;;;;;3.80;2.00;;;9.00;99.90;;;;;;5067046;28;20454;-66
2021/12/04 10:47:38;;;;;;;4.23;2.47;;;9.20;99.90;;;;;;5065690;28;20476;-64
2021/12/04 10:50:19;;;;;;;5.43;2.30;;;9.40;99.90;;;;;;5062946;28;20466;-67
2021/12/04 10:52:51;;;;;;;3.40;2.33;;;9.50;99.90;;;;;;5061736;28;20452;-68
2021/12/04 10:55:24;;;;;;;4.00;2.70;;;9.70;99.90;;;;;;5056680;28;21001;-67
2021/12/04 11:00:49;;;;;;;4.53;2.10;;;9.70;99.90;;;;;;5055408;28;20561;-67
2021/12/04 11:03:30;;;;;;;4.80;2.63;;;9.80;99.90;;;;;;5056472;28;20804;-67
2021/12/04 11:06:35;;;;;;;4.17;2.80;;;9.90;99.90;;;;;;5064663;28;20451;-67
2021/12/04 11:26:26;;;;;;;3.60;2.83;;;10.00;99.90;;;;;;5047659;28;20443;-67
2021/12/04 11:37:12;;;;;;;4.53;2.60;;;9.90;99.90;;;;;;5045298;28;20580;-67
2021/12/04 11:40:01;;;;;;;2.53;1.90;;;9.90;99.90;;;;;;5055729;28;20463;-66
2021/12/04 11:42:35;;;;;;;3.00;2.20;;;9.90;99.90;;;;;;5070756;28;20513;-66
2021/12/04 11:45:14;;;;;;;4.20;2.10;;;9.90;99.90;;;;;;5070017;28;20447;-66
2021/12/04 11:47:44;;;;;;;4.60;2.10;;;9.80;99.90;;;;;;5070481;28;20478;-66
2021/12/04 11:50:17;;;;;;;3.63;1.80;;;9.80;99.90;;;;;;5065300;28;20458;-67
2021/12/04 11:52:47;;;;;;;3.60;1.70;;;9.70;99.90;;;;;;5068492;28;21007;-66
2021/12/04 11:55:14;;;;;;;4.57;1.40;;;9.70;99.90;;;;;;5067070;28;20442;-66
2021/12/04 11:57:42;;;;;;;2.90;1.80;;;9.70;99.90;;;;;;5065543;28;20953;-67
2021/12/04 12:00:17;;;;;;;3.23;1.30;;;9.60;99.90;;;;;;5069940;28;20958;-66
2021/12/04 12:02:44;;;;;;;2.20;1.17;;;9.60;99.90;;;;;;5070498;28;20443;-66
2021/12/04 12:05:16;;;;;;;3.00;1.63;;;9.70;99.90;;;;;;5065194;28;20848;-67
2021/12/04 12:07:51;;;;;;;3.90;1.30;;;9.80;99.90;;;;;;5065259;28;20846;-66
2021/12/04 12:10:19;;;;;;;2.30;1.30;;;9.90;99.90;;;;;;5062340;28;20459;-66
2021/12/04 12:12:48;;;;;;;3.70;1.10;;;9.90;99.90;;;;;;5062988;28;20440;-66
2021/12/04 12:15:28;;;;;;;3.30;1.03;;;10.00;99.90;;;;;;5066664;28;20450;-66
2021/12/04 12:17:56;;;;;;;2.37;1.10;;;10.00;99.90;;;;;;5061343;28;20454;-67
2021/12/04 12:20:40;;;;;;;2.17;0.97;;;10.20;99.90;;;;;;5069111;28;21018;-67
2021/12/04 12:23:10;;;;;;;3.70;1.00;;;10.30;99.90;;;;;;5063574;28;20467;-67
2021/12/04 12:25:56;;;;;;;2.00;1.00;;;10.30;99.90;;;;;;5064588;28;21156;-64
2021/12/04 12:34:27;;;;;;;2.50;1.20;;;10.50;99.90;;;;;;5063806;28;20444;-65
2021/12/04 12:36:53;;;;;;;2.60;1.30;;;10.50;99.90;;;;;;5062360;28;20447;-64
2021/12/04 12:39:20;;;;;;;1.93;0.90;;;10.50;99.90;;;;;;5065734;28;20520;-64
2021/12/04 12:41:49;;;;;;;3.20;1.27;;;10.60;99.90;;;;;;5060582;28;20527;-63
2021/12/04 12:44:19;;;;;;;2.97;0.90;;;10.60;99.90;;;;;;5065343;28;20839;-64
2021/12/04 12:46:49;;;;;;;1.90;0.80;;;10.60;99.90;;;;;;5069844;28;20439;-64
2021/12/04 12:49:23;;;;;;;2.70;1.00;;;10.50;99.90;;;;;;5069785;28;20566;-65
2021/12/04 12:51:56;;;;;;;2.50;1.17;;;10.50;99.90;;;;;;5069149;28;20482;-65
2021/12/04 12:54:27;;;;;;;3.20;1.23;;;10.50;99.90;;;;;;5068510;28;20562;-65
2021/12/04 12:57:00;;;;;;;2.33;1.03;;;10.40;99.90;;;;;;5068090;28;20458;-64
2021/12/04 12:59:37;;;;;;;2.20;1.00;;;10.30;99.90;;;;;;5070032;28;20824;-64
2021/12/04 13:13:25;;;;;;;2.50;1.10;;;10.20;99.90;;;;;;5063056;28;20438;-64
2021/12/04 13:15:55;;;;;;;2.13;0.90;;;10.20;99.90;;;;;;5067918;28;20447;-64
2021/12/04 13:18:25;;;;;;;1.80;0.70;;;10.20;99.90;;;;;;5067440;28;20531;-64
2021/12/04 13:20:58;;;;;;;2.33;0.90;;;10.20;99.90;;;;;;5069215;28;20818;-64
2021/12/04 13:23:26;;;;;;;2.90;1.13;;;10.20;99.90;;;;;;5068829;28;20501;-64
2021/12/04 13:25:54;;;;;;;2.67;0.83;;;10.20;99.90;;;;;;5068300;28;20439;-64
2021/12/04 13:28:24;;;;;;;2.00;0.90;;;10.20;99.90;;;;;;5068654;28;20879;-64
2021/12/04 13:30:51;;;;;;;2.07;1.00;;;10.20;99.90;;;;;;5069408;28;20458;-65
2021/12/04 13:33:18;;;;;;;2.03;0.90;;;10.20;99.90;;;;;;5069391;28;20460;-65
2021/12/04 13:35:47;;;;;;;1.90;0.90;;;10.20;99.90;;;;;;5069218;28;20516;-64
2021/12/04 13:38:16;;;;;;;2.17;1.10;;;10.20;99.90;;;;;;5068719;28;20447;-65
2021/12/04 13:40:44;;;;;;;1.97;1.00;;;10.10;99.90;;;;;;5069532;28;20460;-63
2021/12/04 13:43:13;;;;;;;2.43;1.30;;;10.10;99.90;;;;;;5069193;28;20451;-64
2021/12/04 13:45:40;;;;;;;2.73;1.13;;;10.00;99.90;;;;;;5065854;28;20534;-65
2021/12/04 13:48:08;;;;;;;2.50;1.00;;;9.90;99.90;;;;;;5068406;28;20471;-65
2021/12/04 13:50:47;;;;;;;1.90;1.10;;;9.90;99.90;;;;;;5068929;28;20460;-65
2021/12/04 13:53:23;;;;;;;3.60;1.47;;;9.90;99.90;;;;;;5068830;28;20461;-64
2021/12/04 13:55:54;;;;;;;2.13;0.97;;;9.90;99.90;;;;;;5068871;28;20550;-64
2021/12/04 13:58:22;;;;;;;2.40;1.33;;;9.90;99.90;;;;;;5068502;28;21012;-65
2021/12/04 14:00:49;;;;;;;2.10;1.10;;;9.90;99.90;;;;;;5065279;28;20880;-63
2021/12/04 14:03:22;;;;;;;2.10;1.07;;;9.80;99.90;;;;;;5061295;28;20462;-65
2021/12/04 14:05:49;;;;;;;2.80;1.30;;;9.80;99.90;;;;;;5061468;28;20449;-67
2021/12/04 14:08:18;;;;;;;3.20;1.13;;;9.70;99.90;;;;;;5061625;28;20522;-65
2021/12/04 14:10:46;;;;;;;2.67;1.27;;;9.60;99.90;;;;;;5065457;28;20460;-65
2021/12/04 14:13:15;;;;;;;3.20;1.70;;;9.60;99.90;;;;;;5065098;28;20447;-65
2021/12/04 14:15:45;;;;;;;2.97;1.23;;;9.50;99.90;;;;;;5067916;28;20560;-65
2021/12/04 14:18:14;;;;;;;4.60;2.03;;;9.40;99.90;;;;;;5067688;28;20475;-65
2021/12/04 14:20:43;;;;;;;3.77;1.73;;;9.40;99.90;;;;;;5068414;28;20471;-65
2021/12/04 14:23:12;;;;;;;3.07;1.40;;;9.30;99.90;;;;;;5067561;28;20451;-64
2021/12/04 14:25:45;;;;;;;5.23;1.70;;;9.30;99.90;;;;;;5067934;28;20527;-65
2021/12/04 14:28:15;;;;;;;2.27;1.20;;;9.30;99.90;;;;;;5066385;28;20574;-64
2021/12/04 14:30:45;;;;;;;2.53;1.60;;;9.30;99.90;;;;;;5068389;28;20847;-65
2021/12/04 14:33:15;;;;;;;2.53;1.20;;;9.30;99.90;;;;;;5068076;28;20448;-64
2021/12/04 14:35:45;;;;;;;3.90;1.50;;;9.30;99.90;;;;;;5067707;28;20518;-65
2021/12/04 14:38:14;;;;;;;2.63;1.70;;;9.30;99.90;;;;;;5066358;28;20439;-64
2021/12/04 14:40:45;;;;;;;2.93;1.77;;;9.30;99.90;;;;;;5068257;28;20467;-65
2021/12/04 14:43:13;;;;;;;3.33;1.80;;;9.20;99.90;;;;;;5068631;28;20457;-65
2021/12/04 14:45:43;;;;;;;3.23;1.93;;;9.20;99.90;;;;;;5067883;28;20453;-66
2021/12/04 14:48:13;;;;;;;2.63;1.40;;;9.30;99.90;;;;;;5057414;28;20496;-62
2021/12/04 14:50:43;;;;;;;2.47;1.40;;;9.20;99.90;;;;;;5055825;28;20467;-65
2021/12/04 14:53:13;;;;;;;3.47;1.47;;;9.20;99.90;;;;;;5058582;28;20949;-65
2021/12/04 14:55:44;;;;;;;3.47;2.43;;;9.20;99.90;;;;;;5052549;28;20442;-63
2021/12/04 14:58:14;;;;;;;2.23;1.60;;;9.20;99.90;;;;;;5046816;28;20540;-63
2021/12/04 15:00:44;;;;;;;2.60;1.27;;;9.20;99.90;;;;;;5055294;28;20514;-64
2021/12/04 15:03:14;;;;;;;3.23;1.57;;;9.20;99.90;;;;;;5059170;28;20585;-63
2021/12/04 15:05:43;;;;;;;2.57;1.23;;;9.20;99.90;;;;;;5047790;28;20456;-63
2021/12/04 15:08:12;;;;;;;2.77;1.83;;;9.10;99.90;;;;;;5054531;28;20982;-65
2021/12/04 15:10:40;;;;;;;2.70;1.93;;;9.20;99.90;;;;;;5055576;28;20515;-62
2021/12/04 15:13:18;;;;;;;6.63;2.27;;;9.10;99.90;;;;;;5060171;28;20444;-63
2021/12/04 15:15:45;;;;;;;2.63;1.70;;;9.10;99.90;;;;;;5062548;28;20446;-64
2021/12/04 15:18:14;;;;;;;3.80;1.80;;;9.10;99.90;;;;;;5056999;28;20911;-63
2021/12/04 15:20:47;;;;;;;4.33;2.27;;;9.10;99.90;;;;;;5060840;28;20471;-63
2021/12/04 15:23:20;;;;;;;4.07;2.00;;;9.10;99.90;;;;;;5056443;28;20455;-64
2021/12/04 15:25:51;;;;;;;2.63;1.87;;;9.10;99.90;;;;;;5057775;28;20939;-65
2021/12/04 15:28:23;;;;;;;3.23;1.90;;;9.00;99.90;;;;;;5056811;28;20437;-64
2021/12/04 15:30:52;;;;;;;2.47;1.40;;;9.00;99.90;;;;;;5061628;28;20444;-64
2021/12/04 15:33:24;;;;;;;2.60;1.53;;;9.00;99.90;;;;;;5062211;28;20506;-65